Saint Petersburg, Russia
Current Conditions -  °F | °C
As of 5:00 PM on Tuesday 27 Jan 2015 (Local Time) from ULLI Reporting Station
Overcast Overcast  
Wind Chill: -10°   Ceiling: 3700
Heat Index: -4°   Visibility: 6mi
Dew Point: -5°   Wind: 11mph
Humidity: 93%   Direction: 170°S
Pressure: 29.85"   Gusts: NA
Location:  59.93°N, 30.32°E
Report Text: ULLI 271400Z 17005MPS 9999 BKN037 OVC066 M04/M05 Q1011 88290050NOSIG
Loading
Personal Weather Stations






























Interactive Weather Map New forecast layout! Learn more

10-Day Weather Forecast

Advertisements
Track Severe Weather on mobile